Map

Track Data

SID SEASON NUMBER BASIN SUBBASIN NAME ISO_TIME NATURE LAT LON WMO_WIND WMO_PRES WMO_AGENCY TRACK_TYPE DIST2LAND LANDFALL IFLAG USA_AGENCY USA_ATCF_ID USA_LAT USA_LON USA_RECORD USA_STATUS USA_WIND USA_PRES USA_SSHS USA_R34_NE USA_R34_SE USA_R34_SW USA_R34_NW USA_R50_NE USA_R50_SE USA_R50_SW USA_R50_NW USA_R64_NE USA_R64_SE USA_R64_SW USA_R64_NW USA_POCI USA_ROCI USA_RMW USA_EYE TOKYO_LAT TOKYO_LON TOKYO_GRADE TOKYO_WIND TOKYO_PRES TOKYO_R50_DIR TOKYO_R50_LONG TOKYO_R50_SHORT TOKYO_R30_DIR TOKYO_R30_LONG TOKYO_R30_SHORT TOKYO_LAND CMA_LAT CMA_LON CMA_CAT CMA_WIND CMA_PRES HKO_LAT HKO_LON HKO_CAT HKO_WIND HKO_PRES NEWDELHI_LAT NEWDELHI_LON NEWDELHI_GRADE NEWDELHI_WIND NEWDELHI_PRES NEWDELHI_CI NEWDELHI_DP NEWDELHI_POCI REUNION_LAT REUNION_LON REUNION_TYPE REUNION_WIND REUNION_PRES REUNION_TNUM REUNION_CI REUNION_RMW REUNION_R34_NE REUNION_R34_SE REUNION_R34_SW REUNION_R34_NW REUNION_R50_NE REUNION_R50_SE REUNION_R50_SW REUNION_R50_NW REUNION_R64_NE REUNION_R64_SE REUNION_R64_SW REUNION_R64_NW BOM_LAT BOM_LON BOM_TYPE BOM_WIND BOM_PRES BOM_TNUM BOM_CI BOM_RMW BOM_R34_NE BOM_R34_SE BOM_R34_SW BOM_R34_NW BOM_R50_NE BOM_R50_SE BOM_R50_SW BOM_R50_NW BOM_R64_NE BOM_R64_SE BOM_R64_SW BOM_R64_NW BOM_ROCI BOM_POCI BOM_EYE BOM_POS_METHOD BOM_PRES_METHOD NADI_LAT NADI_LON NADI_CAT NADI_WIND NADI_PRES WELLINGTON_LAT WELLINGTON_LON WELLINGTON_WIND WELLINGTON_PRES DS824_LAT DS824_LON DS824_STAGE DS824_WIND DS824_PRES TD9636_LAT TD9636_LON TD9636_STAGE TD9636_WIND TD9636_PRES TD9635_LAT TD9635_LON TD9635_WIND TD9635_PRES TD9635_ROCI NEUMANN_LAT NEUMANN_LON NEUMANN_CLASS NEUMANN_WIND NEUMANN_PRES MLC_LAT MLC_LON MLC_CLASS MLC_WIND MLC_PRES USA_GUST BOM_GUST BOM_GUST_PER REUNION_GUST REUNION_GUST_PER USA_SEAHGT USA_SEARAD_NE USA_SEARAD_SE USA_SEARAD_SW USA_SEARAD_NW STORM_SPEED STORM_DIR
1925001S18067 1925 1 SI MM NOT_NAMED 1925-01-01 06:00:00 NR -17.5000 67.2000 reunion main 1037 1023 _____O________ -1 -17.5000 67.2000 99 9.90000 2 229
1925001S18067 1925 1 SI MM NOT_NAMED 1925-01-01 09:00:00 NR -17.5642 67.1245 main 1023 1023 _____P________ -1 -17.5642 67.1245 99 2 227
1925001S18067 1925 1 SI MM NOT_NAMED 1925-01-01 12:00:00 NR -17.6341 67.0466 main 1013 1009 _____P________ -1 -17.6341 67.0466 99 2 226
1925001S18067 1925 1 SI MM NOT_NAMED 1925-01-01 15:00:00 NR -17.7157 66.9642 main 1009 996 _____P________ -1 -17.7157 66.9642 99 2 222
1925001S18067 1925 1 SI MM NOT_NAMED 1925-01-01 18:00:00 NR -17.8146 66.8747 main 996 982 _____P________ -1 -17.8146 66.8747 99 3 219
1925001S18067 1925 1 SI MM NOT_NAMED 1925-01-01 21:00:00 NR -17.9367 66.7760 main 982 966 _____P________ -1 -17.9367 66.7760 99 3 216
1925001S18067 1925 1 SI MM NOT_NAMED 1925-01-02 00:00:00 NR -18.0878 66.6655 main 966 939 _____P________ -1 -18.0878 66.6655 99 4 214
1925001S18067 1925 1 SI MM NOT_NAMED 1925-01-02 03:00:00 NR -18.2736 66.5410 main 939 924 _____P________ -1 -18.2736 66.5410 99 5 212
1925001S18067 1925 1 SI MM NOT_NAMED 1925-01-02 06:00:00 NR -18.5000 66.4000 reunion main 924 906 _____O________ -1 -18.5000 66.4000 99 9.90000 6 210
1925001S18067 1925 1 SI MM NOT_NAMED 1925-01-02 09:00:00 NR -18.7706 66.2417 main 895 879 _____P________ -1 -18.7706 66.2417 99 7 208
1925001S18067 1925 1 SI MM NOT_NAMED 1925-01-02 12:00:00 NR -19.0809 66.0726 main 879 852 _____P________ -1 -19.0809 66.0726 99 7 206
1925001S18067 1925 1 SI MM NOT_NAMED 1925-01-02 15:00:00 NR -19.4240 65.9009 main 852 826 _____P________ -1 -19.4240 65.9009 99 8 204
1925001S18067 1925 1 SI MM NOT_NAMED 1925-01-02 18:00:00 NR -19.7933 65.7350 main 826 813 _____P________ -1 -19.7933 65.7350 99 8 201
1925001S18067 1925 1 SI MM NOT_NAMED 1925-01-02 21:00:00 NR -20.1822 65.5834 main 813 802 _____P________ -1 -20.1822 65.5834 99 8 198
1925001S18067 1925 1 SI MM NOT_NAMED 1925-01-03 00:00:00 NR -20.5840 65.4545 main 802 792 _____P________ -1 -20.5840 65.4545 99 8 195
1925001S18067 1925 1 SI MM NOT_NAMED 1925-01-03 03:00:00 NR -20.9921 65.3571 main 794 784 _____P________ -1 -20.9921 65.3571 99 8 190
1925001S18067 1925 1 SI MM NOT_NAMED 1925-01-03 06:00:00 NR -21.4000 65.3000 reunion main 788 788 _____O________ -1 -21.4000 65.3000 99 9.90000 8 183
1925001S18067 1925 1 SI MM NOT_NAMED 1925-01-03 09:00:00 NR -21.8240 65.3170 main 795 795 _____P________ -1 -21.8240 65.3170 99 9 176
1925001S18067 1925 1 SI MM NOT_NAMED 1925-01-03 12:00:00 NR -22.2579 65.3754 main 818 818 _____P________ -1 -22.2579 65.3754 99 9 171
1925001S18067 1925 1 SI MM NOT_NAMED 1925-01-03 15:00:00 NR -22.6917 65.4665 main 840 840 _____P________ -1 -22.6917 65.4665 99 9 168
1925001S18067 1925 1 SI MM NOT_NAMED 1925-01-03 18:00:00 NR -23.1150 65.5816 main 864 864 _____P________ -1 -23.1150 65.5816 99 9 165
1925001S18067 1925 1 SI MM NOT_NAMED 1925-01-03 21:00:00 NR -23.5177 65.7117 main 889 889 _____P________ -1 -23.5177 65.7117 99 8 163
1925001S18067 1925 1 SI MM NOT_NAMED 1925-01-04 00:00:00 NR -23.8896 65.8476 main 915 915 _____P________ -1 -23.8896 65.8476 99 7 161
1925001S18067 1925 1 SI MM NOT_NAMED 1925-01-04 03:00:00 NR -24.2204 65.9802 main 947 947 _____P________ -1 -24.2204 65.9802 99 7 159
1925001S18067 1925 1 SI MM NOT_NAMED 1925-01-04 06:00:00 NR -24.5000 66.1000 reunion main 971 971 _____O________ -1 -24.5000 66.1000 99 9.90000 5 159
1925001S18067 1925 1 SI MM NOT_NAMED 1925-01-04 09:00:00 NR -24.7213 66.1995 main 990 990 _____P________ -1 -24.7213 66.1995 99 4 157
1925001S18067 1925 1 SI MM NOT_NAMED 1925-01-04 12:00:00 NR -24.8891 66.2794 main 1009 1009 _____P________ -1 -24.8891 66.2794 99 3 155
1925001S18067 1925 1 SI MM NOT_NAMED 1925-01-04 15:00:00 NR -25.0109 66.3423 main 1014 1014 _____P________ -1 -25.0109 66.3423 99 2 153
1925001S18067 1925 1 SI MM NOT_NAMED 1925-01-04 18:00:00 NR -25.0946 66.3910 main 1028 1028 _____P________ -1 -25.0946 66.3910 99 2 150
1925001S18067 1925 1 SI MM NOT_NAMED 1925-01-04 21:00:00 NR -25.1477 66.4283 main 1028 1028 _____P________ -1 -25.1477 66.4283 99 1 149
1925001S18067 1925 1 SI MM NOT_NAMED 1925-01-05 00:00:00 NR -25.1778 66.4570 main 1042 1042 _____P________ -1 -25.1778 66.4570 99 1 144
1925001S18067 1925 1 SI MM NOT_NAMED 1925-01-05 03:00:00 NR -25.1927 66.4799 main 1042 1042 _____P________ -1 -25.1927 66.4799 99 0 124
1925001S18067 1925 1 SI MM NOT_NAMED 1925-01-05 06:00:00 NR -25.2000 66.5000 reunion main 1042 _____O________ -1 -25.2000 66.5000 99 9.90000 0 0

About IBTrACS Database

This database is a web-friendly format of International Best Track Archive for Climate Stewardship (IBTrACS), a global best track data archive curated by NOAA dating back to 1842.

Updated: 2021-12-03